createdAt,value
2016-07-03T00:00:08.137Z,972.58
2016-07-03T00:01:08.135Z,972.57
2016-07-03T00:02:08.138Z,972.57
2016-07-03T00:03:08.138Z,972.55
2016-07-03T00:04:08.137Z,972.53
2016-07-03T00:05:08.142Z,972.52
2016-07-03T00:06:08.141Z,972.52
2016-07-03T00:07:08.142Z,972.51
2016-07-03T00:08:08.141Z,972.53
2016-07-03T00:09:08.142Z,972.57
2016-07-03T00:10:08.141Z,972.56
2016-07-03T00:11:08.146Z,972.61
2016-07-03T00:12:08.146Z,972.64
2016-07-03T00:13:08.146Z,972.64
2016-07-03T00:14:08.146Z,972.65
2016-07-03T00:15:08.150Z,972.65
2016-07-03T00:16:08.150Z,972.68
2016-07-03T00:17:08.150Z,972.68
2016-07-03T00:18:08.150Z,972.59
2016-07-03T00:19:08.165Z,972.58
2016-07-03T00:20:08.154Z,972.55
2016-07-03T00:21:08.152Z,972.53
2016-07-03T00:22:08.154Z,972.55
2016-07-03T00:23:08.155Z,972.58
2016-07-03T00:24:08.160Z,972.57
2016-07-03T00:25:08.153Z,972.6
2016-07-03T00:26:08.157Z,972.62
2016-07-03T00:27:08.159Z,972.58
2016-07-03T00:28:08.157Z,972.56
2016-07-03T00:29:08.159Z,972.54
2016-07-03T00:30:08.160Z,972.52
2016-07-03T00:31:08.166Z,972.59
2016-07-03T00:32:08.165Z,972.57
2016-07-03T00:33:08.164Z,972.59
2016-07-03T00:34:08.166Z,972.56
2016-07-03T00:35:08.169Z,972.56
2016-07-03T00:36:08.165Z,972.54
2016-07-03T00:37:08.170Z,972.48
2016-07-03T00:38:08.170Z,972.43
2016-07-03T00:39:08.170Z,972.38
2016-07-03T00:40:08.170Z,972.43
2016-07-03T00:41:08.169Z,972.44
2016-07-03T00:42:08.174Z,972.45
2016-07-03T00:43:08.174Z,972.48
2016-07-03T00:44:08.174Z,972.47
2016-07-03T00:45:08.175Z,972.51
2016-07-03T00:46:08.174Z,972.49
2016-07-03T00:47:08.177Z,972.51
2016-07-03T00:48:08.179Z,972.57
2016-07-03T00:49:08.179Z,972.52
2016-07-03T00:50:08.178Z,972.49
2016-07-03T00:51:08.179Z,972.47
2016-07-03T00:52:08.182Z,972.4
2016-07-03T00:53:08.184Z,972.39
2016-07-03T00:54:08.183Z,972.36
2016-07-03T00:55:08.184Z,972.34
2016-07-03T00:56:08.181Z,972.34
2016-07-03T00:57:08.187Z,972.35
2016-07-03T00:58:08.187Z,972.34
2016-07-03T00:59:08.188Z,972.35
2016-07-03T01:00:08.187Z,972.34
2016-07-03T01:01:08.188Z,972.32
2016-07-03T01:02:08.187Z,972.33
2016-07-03T01:03:08.192Z,972.29
2016-07-03T01:04:08.189Z,972.32
2016-07-03T01:05:08.192Z,972.36
2016-07-03T01:06:08.191Z,972.35
2016-07-03T01:07:08.193Z,972.4
2016-07-03T01:08:08.196Z,972.41
2016-07-03T01:09:08.195Z,972.37
2016-07-03T01:10:08.196Z,972.4
2016-07-03T01:11:08.196Z,972.44
2016-07-03T01:12:08.194Z,972.39
2016-07-03T01:13:08.198Z,972.41
2016-07-03T01:14:08.197Z,972.42
2016-07-03T01:15:08.204Z,972.48
2016-07-03T01:16:08.198Z,972.48
2016-07-03T01:17:08.201Z,972.48
2016-07-03T01:18:08.251Z,972.43
2016-07-03T01:19:08.205Z,972.39
2016-07-03T01:20:08.204Z,972.39
2016-07-03T01:21:08.204Z,972.4
2016-07-03T01:22:08.204Z,972.38
2016-07-03T01:23:08.205Z,972.38
2016-07-03T01:24:08.208Z,972.38
2016-07-03T01:25:08.209Z,972.41
2016-07-03T01:26:08.206Z,972.37
2016-07-03T01:27:08.209Z,972.35
2016-07-03T01:28:08.209Z,972.39
2016-07-03T01:29:08.213Z,972.38
2016-07-03T01:30:08.210Z,972.38
2016-07-03T01:31:08.210Z,972.39
2016-07-03T01:32:08.210Z,972.43
2016-07-03T01:33:08.210Z,972.41
2016-07-03T01:34:08.210Z,972.41
2016-07-03T01:35:08.216Z,972.42
2016-07-03T01:36:08.214Z,972.38
2016-07-03T01:37:08.213Z,972.45
2016-07-03T01:38:08.214Z,972.42
2016-07-03T01:39:08.215Z,972.43
2016-07-03T01:40:08.219Z,972.41
2016-07-03T01:41:08.219Z,972.41
2016-07-03T01:42:08.220Z,972.41
2016-07-03T01:43:08.219Z,972.4
2016-07-03T01:44:08.220Z,972.38
2016-07-03T01:45:08.223Z,972.39
2016-07-03T01:46:08.224Z,972.41
2016-07-03T01:47:08.223Z,972.36
2016-07-03T01:48:08.224Z,972.44
2016-07-03T01:49:08.223Z,972.37
2016-07-03T01:50:08.224Z,972.34
2016-07-03T01:51:08.228Z,972.3
2016-07-03T01:52:08.228Z,972.32
2016-07-03T01:53:08.226Z,972.34
2016-07-03T01:54:08.228Z,972.3
2016-07-03T01:55:08.225Z,972.33
2016-07-03T01:56:08.226Z,972.31
2016-07-03T01:57:08.232Z,972.32
2016-07-03T01:58:08.230Z,972.28
2016-07-03T01:59:08.229Z,972.32
2016-07-03T02:00:08.233Z,972.33
2016-07-03T02:01:08.232Z,972.27
2016-07-03T02:02:08.236Z,972.29
2016-07-03T02:03:08.236Z,972.28
2016-07-03T02:04:08.237Z,972.31
2016-07-03T02:05:08.236Z,972.29
2016-07-03T02:06:08.237Z,972.25
2016-07-03T02:07:08.237Z,972.23
2016-07-03T02:08:08.241Z,972.26
2016-07-03T02:09:08.240Z,972.25
2016-07-03T02:10:08.241Z,972.24
2016-07-03T02:11:08.240Z,972.19
2016-07-03T02:12:08.242Z,972.2
2016-07-03T02:13:08.245Z,972.15
2016-07-03T02:14:08.247Z,972.11
2016-07-03T02:15:08.243Z,972.12
2016-07-03T02:16:08.245Z,972.17
2016-07-03T02:17:08.245Z,972.19
2016-07-03T02:18:08.243Z,972.13
2016-07-03T02:19:08.249Z,972.18
2016-07-03T02:20:08.249Z,972.26
2016-07-03T02:21:08.249Z,972.27
2016-07-03T02:22:08.250Z,972.27
2016-07-03T02:23:08.249Z,972.27
2016-07-03T02:24:08.253Z,972.27
2016-07-03T02:25:08.254Z,972.21
2016-07-03T02:26:08.255Z,972.21
2016-07-03T02:27:08.253Z,972.26
2016-07-03T02:28:08.252Z,972.2
2016-07-03T02:29:08.251Z,972.19
2016-07-03T02:30:08.256Z,972.15
2016-07-03T02:31:08.259Z,972.16
2016-07-03T02:32:08.259Z,972.14
2016-07-03T02:33:08.258Z,972.2
2016-07-03T02:34:08.256Z,972.17
2016-07-03T02:35:08.262Z,972.22
2016-07-03T02:36:08.263Z,972.2
2016-07-03T02:37:08.258Z,972.25
2016-07-03T02:38:08.261Z,972.28
2016-07-03T02:39:08.262Z,972.3
2016-07-03T02:40:08.263Z,972.28
2016-07-03T02:41:08.266Z,972.29
2016-07-03T02:42:08.267Z,972.31
2016-07-03T02:43:08.266Z,972.27
2016-07-03T02:44:08.267Z,972.24
2016-07-03T02:45:08.266Z,972.22
2016-07-03T02:46:08.267Z,972.27
2016-07-03T02:47:08.270Z,972.27
2016-07-03T02:48:08.271Z,972.27
2016-07-03T02:49:08.270Z,972.28
2016-07-03T02:50:08.271Z,972.24
2016-07-03T02:51:08.270Z,972.24
2016-07-03T02:52:08.275Z,972.23
2016-07-03T02:53:08.275Z,972.23
2016-07-03T02:54:08.275Z,972.23
2016-07-03T02:55:08.274Z,972.2
2016-07-03T02:56:08.275Z,972.18
2016-07-03T02:57:08.278Z,972.19
2016-07-03T02:58:08.279Z,972.16
2016-07-03T02:59:08.275Z,972.16
2016-07-03T03:00:08.281Z,972.12
2016-07-03T03:01:08.279Z,972.12
2016-07-03T03:02:08.280Z,972.11
2016-07-03T03:03:08.279Z,972.14
2016-07-03T03:04:08.284Z,972.13
2016-07-03T03:05:08.283Z,972.2
2016-07-03T03:06:08.284Z,972.22
2016-07-03T03:07:08.281Z,972.2
2016-07-03T03:08:08.282Z,972.18
2016-07-03T03:09:08.283Z,972.24
2016-07-03T03:10:08.286Z,972.22
2016-07-03T03:11:08.287Z,972.19
2016-07-03T03:12:08.288Z,972.21
2016-07-03T03:13:08.287Z,972.15
2016-07-03T03:14:08.288Z,972.18
2016-07-03T03:15:08.292Z,972.18
2016-07-03T03:16:08.292Z,972.24
2016-07-03T03:17:08.291Z,972.25
2016-07-03T03:18:08.390Z,972.21
2016-07-03T03:19:08.289Z,972.19
2016-07-03T03:20:08.293Z,972.25
2016-07-03T03:21:08.293Z,972.21
2016-07-03T03:22:08.296Z,972.23
2016-07-03T03:23:08.296Z,972.24
2016-07-03T03:24:08.296Z,972.31
2016-07-03T03:25:08.298Z,972.32
2016-07-03T03:26:08.296Z,972.32
2016-07-03T03:27:08.300Z,972.35
2016-07-03T03:28:08.300Z,972.37
2016-07-03T03:29:08.300Z,972.32
2016-07-03T03:30:08.300Z,972.34
2016-07-03T03:31:08.300Z,972.33
2016-07-03T03:32:08.300Z,972.33
2016-07-03T03:33:08.305Z,972.3
2016-07-03T03:34:08.304Z,972.29
2016-07-03T03:35:08.304Z,972.27
2016-07-03T03:36:08.304Z,972.3
2016-07-03T03:37:08.305Z,972.34
2016-07-03T03:38:08.302Z,972.34
2016-07-03T03:39:08.303Z,972.34
2016-07-03T03:40:08.306Z,972.35
2016-07-03T03:41:08.306Z,972.35
2016-07-03T03:42:08.306Z,972.34
2016-07-03T03:43:08.306Z,972.34
2016-07-03T03:44:08.306Z,972.38
2016-07-03T03:45:08.313Z,972.37
2016-07-03T03:46:08.306Z,972.38
2016-07-03T03:47:08.313Z,972.38
2016-07-03T03:48:08.312Z,972.38
2016-07-03T03:49:08.313Z,972.32
2016-07-03T03:50:08.310Z,972.32
2016-07-03T03:51:08.313Z,972.34
2016-07-03T03:52:08.316Z,972.36
2016-07-03T03:53:08.314Z,972.37
2016-07-03T03:54:08.314Z,972.42
2016-07-03T03:55:08.317Z,972.48
2016-07-03T03:56:08.316Z,972.45
2016-07-03T03:57:08.317Z,972.45
2016-07-03T03:58:08.316Z,972.45
2016-07-03T03:59:08.321Z,972.39
2016-07-03T04:00:08.320Z,972.42
2016-07-03T04:01:08.321Z,972.46
2016-07-03T04:02:08.320Z,972.45
2016-07-03T04:03:08.322Z,972.48
2016-07-03T04:04:08.320Z,972.49
2016-07-03T04:05:08.325Z,972.47
2016-07-03T04:06:08.322Z,972.49
2016-07-03T04:07:08.328Z,972.47
2016-07-03T04:08:08.322Z,972.51
2016-07-03T04:09:08.323Z,972.53
2016-07-03T04:10:08.324Z,972.52
2016-07-03T04:11:08.326Z,972.49
2016-07-03T04:12:08.327Z,972.52
2016-07-03T04:13:08.329Z,972.5
2016-07-03T04:14:08.327Z,972.42
2016-07-03T04:15:08.327Z,972.45
2016-07-03T04:16:08.329Z,972.43
2016-07-03T04:17:08.333Z,972.4
2016-07-03T04:18:08.333Z,972.44
2016-07-03T04:19:08.333Z,972.45
2016-07-03T04:20:08.333Z,972.46
2016-07-03T04:21:08.335Z,972.45
2016-07-03T04:22:08.332Z,972.51
2016-07-03T04:23:08.338Z,972.49
2016-07-03T04:24:08.336Z,972.52
2016-07-03T04:25:08.339Z,972.52
2016-07-03T04:26:08.337Z,972.55
2016-07-03T04:27:08.337Z,972.57
2016-07-03T04:28:08.339Z,972.6
2016-07-03T04:29:08.343Z,972.64
2016-07-03T04:30:08.343Z,972.64
2016-07-03T04:31:08.343Z,972.61
2016-07-03T04:32:08.343Z,972.6
2016-07-03T04:33:08.344Z,972.59
2016-07-03T04:34:08.344Z,972.6
2016-07-03T04:35:08.343Z,972.52
2016-07-03T04:36:08.348Z,972.54
2016-07-03T04:37:08.347Z,972.49
2016-07-03T04:38:08.348Z,972.48
2016-07-03T04:39:08.347Z,972.49
2016-07-03T04:40:08.348Z,972.5
2016-07-03T04:41:08.347Z,972.55
2016-07-03T04:42:08.348Z,972.57
2016-07-03T04:43:08.353Z,972.58
2016-07-03T04:44:08.353Z,972.62
2016-07-03T04:45:08.352Z,972.65
2016-07-03T04:46:08.353Z,972.66
2016-07-03T04:47:08.353Z,972.67
2016-07-03T04:48:08.353Z,972.71
2016-07-03T04:49:08.354Z,972.74
2016-07-03T04:50:08.356Z,972.76
2016-07-03T04:51:08.357Z,972.71
2016-07-03T04:52:08.357Z,972.71
2016-07-03T04:53:08.357Z,972.68
2016-07-03T04:54:08.356Z,972.72
2016-07-03T04:55:08.357Z,972.69
2016-07-03T04:56:08.360Z,972.72
2016-07-03T04:57:08.360Z,972.74
2016-07-03T04:58:08.359Z,972.77
2016-07-03T04:59:08.359Z,972.81
2016-07-03T05:00:08.359Z,972.8
2016-07-03T05:01:08.363Z,972.79
2016-07-03T05:02:08.362Z,972.81
2016-07-03T05:03:08.363Z,972.74
2016-07-03T05:04:08.362Z,972.79
2016-07-03T05:05:08.363Z,972.77
2016-07-03T05:06:08.362Z,972.82
2016-07-03T05:07:08.362Z,972.82
2016-07-03T05:08:08.366Z,972.81
2016-07-03T05:09:08.365Z,972.81
2016-07-03T05:10:08.364Z,972.79
2016-07-03T05:11:08.365Z,972.81
2016-07-03T05:12:08.364Z,972.78
2016-07-03T05:13:08.367Z,972.78
2016-07-03T05:14:08.367Z,972.78
2016-07-03T05:15:08.375Z,972.8
2016-07-03T05:16:08.367Z,972.78
2016-07-03T05:17:08.375Z,972.78
2016-07-03T05:18:08.469Z,972.79
2016-07-03T05:19:08.369Z,972.79
2016-07-03T05:20:08.374Z,972.75
2016-07-03T05:21:08.374Z,972.82
2016-07-03T05:22:08.374Z,972.83
2016-07-03T05:23:08.374Z,972.82
2016-07-03T05:24:08.374Z,972.8
2016-07-03T05:25:08.373Z,972.78
2016-07-03T05:26:08.373Z,972.79
2016-07-03T05:27:08.377Z,972.73
2016-07-03T05:28:08.378Z,972.75
2016-07-03T05:29:08.377Z,972.78
2016-07-03T05:30:08.377Z,972.77
2016-07-03T05:31:08.377Z,972.77
2016-07-03T05:32:08.377Z,972.8
2016-07-03T05:33:08.381Z,972.8
2016-07-03T05:34:08.382Z,972.81
2016-07-03T05:35:08.387Z,972.81
2016-07-03T05:36:08.381Z,972.79
2016-07-03T05:37:08.381Z,972.84
2016-07-03T05:38:08.386Z,972.85
2016-07-03T05:39:08.383Z,972.89
2016-07-03T05:40:08.383Z,972.86
2016-07-03T05:41:08.384Z,972.88
2016-07-03T05:42:08.386Z,972.9
2016-07-03T05:43:08.385Z,972.91
2016-07-03T05:44:08.389Z,972.85
2016-07-03T05:45:08.388Z,972.82
2016-07-03T05:46:08.389Z,972.84
2016-07-03T05:47:08.389Z,972.84
2016-07-03T05:48:08.389Z,972.87
2016-07-03T05:49:08.398Z,972.88
2016-07-03T05:50:08.394Z,972.9
2016-07-03T05:51:08.393Z,972.91
2016-07-03T05:52:08.394Z,972.91
2016-07-03T05:53:08.392Z,972.93
2016-07-03T05:54:08.394Z,972.93
2016-07-03T05:55:08.396Z,972.92
2016-07-03T05:56:08.397Z,972.93
2016-07-03T05:57:08.397Z,972.96
2016-07-03T05:58:08.398Z,972.97
2016-07-03T05:59:08.400Z,972.95
2016-07-03T06:00:08.401Z,972.96
2016-07-03T06:01:08.401Z,972.95
2016-07-03T06:02:08.402Z,972.94
2016-07-03T06:03:08.402Z,972.96
2016-07-03T06:04:08.403Z,972.96
2016-07-03T06:05:08.409Z,972.97
2016-07-03T06:06:08.408Z,973.01
2016-07-03T06:07:08.407Z,972.97
2016-07-03T06:08:08.409Z,972.97
2016-07-03T06:09:08.408Z,972.99
2016-07-03T06:10:08.414Z,973
2016-07-03T06:11:08.413Z,973.06
2016-07-03T06:12:08.413Z,973.08
2016-07-03T06:13:08.413Z,973.06
2016-07-03T06:14:08.414Z,973.13
2016-07-03T06:15:08.417Z,973.11
2016-07-03T06:16:08.418Z,973.12
2016-07-03T06:17:08.418Z,973.15
2016-07-03T06:18:08.418Z,973.19
2016-07-03T06:19:08.418Z,973.18
2016-07-03T06:20:08.419Z,973.16
2016-07-03T06:21:08.423Z,973.18
2016-07-03T06:22:08.423Z,973.13
2016-07-03T06:23:08.423Z,973.14
2016-07-03T06:24:08.423Z,973.14
2016-07-03T06:25:08.430Z,973.16
2016-07-03T06:26:08.428Z,973.16
2016-07-03T06:27:08.424Z,973.14
2016-07-03T06:28:08.428Z,973.15
2016-07-03T06:29:08.427Z,973.14
2016-07-03T06:30:08.429Z,973.14
2016-07-03T06:31:08.432Z,973.14
2016-07-03T06:32:08.433Z,973.11
2016-07-03T06:33:08.432Z,973.09
2016-07-03T06:34:08.433Z,973.1
2016-07-03T06:35:08.432Z,973.09
2016-07-03T06:36:08.437Z,973.1
2016-07-03T06:37:08.436Z,973.08
2016-07-03T06:38:08.433Z,973.11
2016-07-03T06:39:08.435Z,973.11
2016-07-03T06:40:08.437Z,973.08
2016-07-03T06:41:08.438Z,973.09
2016-07-03T06:42:08.439Z,973.12
2016-07-03T06:43:08.437Z,973.1
2016-07-03T06:44:08.438Z,973.03
2016-07-03T06:45:08.435Z,973.03
2016-07-03T06:46:08.443Z,973.03
2016-07-03T06:47:08.442Z,973.1
2016-07-03T06:48:08.442Z,973.11
2016-07-03T06:49:08.441Z,973.1
2016-07-03T06:50:08.442Z,973.1
2016-07-03T06:51:08.445Z,973.1
2016-07-03T06:52:08.446Z,973.13
2016-07-03T06:53:08.442Z,973.12
2016-07-03T06:54:08.443Z,973.14
2016-07-03T06:55:08.446Z,973.16
2016-07-03T06:56:08.447Z,973.21
2016-07-03T06:57:08.448Z,973.19
2016-07-03T06:58:08.449Z,973.23
2016-07-03T06:59:08.453Z,973.23
2016-07-03T07:00:08.453Z,973.22
2016-07-03T07:01:08.453Z,973.2
2016-07-03T07:02:08.453Z,973.16
2016-07-03T07:03:08.453Z,973.14
2016-07-03T07:04:08.457Z,973.12
2016-07-03T07:05:08.457Z,973.11
2016-07-03T07:06:08.458Z,973.1
2016-07-03T07:07:08.457Z,973.12
2016-07-03T07:08:08.461Z,973.11
2016-07-03T07:09:08.460Z,973.14
2016-07-03T07:10:08.462Z,973.1
2016-07-03T07:11:08.464Z,973.15
2016-07-03T07:12:08.465Z,973.14
2016-07-03T07:13:08.465Z,973.09
2016-07-03T07:14:08.466Z,973.12
2016-07-03T07:15:08.466Z,973.11
2016-07-03T07:16:08.470Z,973.1
2016-07-03T07:17:08.469Z,973.09
2016-07-03T07:18:08.471Z,973.1
2016-07-03T07:19:08.469Z,973.13
2016-07-03T07:20:08.471Z,973.11
2016-07-03T07:21:08.474Z,973.11
2016-07-03T07:22:08.475Z,973.09
2016-07-03T07:23:08.474Z,973.1
2016-07-03T07:24:08.479Z,973.06
2016-07-03T07:25:08.478Z,973.09
2016-07-03T07:26:08.481Z,973.08
2016-07-03T07:27:08.477Z,973.1
2016-07-03T07:28:08.481Z,973.09
2016-07-03T07:29:08.480Z,973.07
2016-07-03T07:30:08.481Z,973.06
2016-07-03T07:31:08.484Z,973.09
2016-07-03T07:32:08.487Z,973.11
2016-07-03T07:33:08.486Z,973.12
2016-07-03T07:34:08.489Z,973.12
2016-07-03T07:35:08.491Z,973.11
2016-07-03T07:36:08.490Z,973.08
2016-07-03T07:37:08.490Z,973.07
2016-07-03T07:38:08.496Z,973.13
2016-07-03T07:39:08.493Z,973.12
2016-07-03T07:40:08.496Z,973.09
2016-07-03T07:41:08.499Z,973.12
2016-07-03T07:42:08.499Z,973.1
2016-07-03T07:43:08.499Z,973.12
2016-07-03T07:44:08.504Z,973.1
2016-07-03T07:45:08.503Z,973.08
2016-07-03T07:46:08.504Z,973.13
2016-07-03T07:47:08.501Z,973.09
2016-07-03T07:48:08.508Z,973.06
2016-07-03T07:49:08.507Z,973.08
2016-07-03T07:50:08.508Z,973.08
2016-07-03T07:51:08.511Z,973.03
2016-07-03T07:52:08.511Z,973.06
2016-07-03T07:53:08.511Z,973.05
2016-07-03T07:54:08.516Z,973.06
2016-07-03T07:55:08.516Z,973.05
2016-07-03T07:56:08.516Z,973.06
2016-07-03T07:57:08.521Z,973.09
2016-07-03T07:58:08.521Z,973.06
2016-07-03T07:59:08.520Z,973.06
2016-07-03T08:00:08.525Z,973.05
2016-07-03T08:01:08.526Z,973.05
2016-07-03T08:02:08.525Z,973.04
2016-07-03T08:03:08.529Z,973.01
2016-07-03T08:04:08.529Z,973.01
2016-07-03T08:05:08.526Z,972.97
2016-07-03T08:06:08.530Z,973.02
2016-07-03T08:07:08.530Z,972.99
2016-07-03T08:08:08.541Z,972.98
2016-07-03T08:09:08.535Z,972.97
2016-07-03T08:10:08.534Z,973
2016-07-03T08:11:08.541Z,972.98
2016-07-03T08:12:08.540Z,972.97
2016-07-03T08:13:08.542Z,972.95
2016-07-03T08:14:08.549Z,972.97
2016-07-03T08:15:08.545Z,972.98
2016-07-03T08:16:08.545Z,972.96
2016-07-03T08:17:08.549Z,972.95
2016-07-03T08:18:08.601Z,972.94
2016-07-03T08:19:08.557Z,972.97
2016-07-03T08:20:08.553Z,972.97
2016-07-03T08:21:08.553Z,972.92
2016-07-03T08:22:08.558Z,972.94
2016-07-03T08:23:08.558Z,972.94
2016-07-03T08:24:08.556Z,972.95
2016-07-03T08:25:08.563Z,972.96
2016-07-03T08:26:08.561Z,972.96
2016-07-03T08:27:08.564Z,972.93
2016-07-03T08:28:08.564Z,972.93
2016-07-03T08:29:08.571Z,972.91
2016-07-03T08:30:08.568Z,972.92
2016-07-03T08:31:08.571Z,972.92
2016-07-03T08:32:08.574Z,972.88
2016-07-03T08:33:08.575Z,972.9
2016-07-03T08:34:08.578Z,972.88
2016-07-03T08:35:08.579Z,972.88
2016-07-03T08:36:08.578Z,972.9
2016-07-03T08:37:08.582Z,972.92
2016-07-03T08:38:08.582Z,972.92
2016-07-03T08:39:08.586Z,972.94
2016-07-03T08:40:08.587Z,972.92
2016-07-03T08:41:08.592Z,972.91
2016-07-03T08:42:08.591Z,972.92
2016-07-03T08:43:08.591Z,972.93
2016-07-03T08:44:08.595Z,972.88
2016-07-03T08:45:08.599Z,972.91
2016-07-03T08:46:08.599Z,972.91
2016-07-03T08:47:08.599Z,972.86
2016-07-03T08:48:08.600Z,972.9
2016-07-03T08:49:08.603Z,972.9
2016-07-03T08:50:08.603Z,972.95
2016-07-03T08:51:08.608Z,972.91
2016-07-03T08:52:08.611Z,972.89
2016-07-03T08:53:08.611Z,972.88
2016-07-03T08:54:08.610Z,972.85
2016-07-03T08:55:08.614Z,972.92
2016-07-03T08:56:08.614Z,972.9
2016-07-03T08:57:08.618Z,972.93
2016-07-03T08:58:08.617Z,972.96
2016-07-03T08:59:08.619Z,972.93
2016-07-03T09:00:08.623Z,972.96
2016-07-03T09:01:08.625Z,972.95
2016-07-03T09:02:08.623Z,972.94
2016-07-03T09:03:08.628Z,972.88
2016-07-03T09:04:08.627Z,972.9
2016-07-03T09:05:08.630Z,972.89
2016-07-03T09:06:08.634Z,972.84
2016-07-03T09:07:08.634Z,972.84
2016-07-03T09:08:08.638Z,972.86
2016-07-03T09:09:08.642Z,972.86
2016-07-03T09:10:08.641Z,972.87
2016-07-03T09:11:08.641Z,972.84
2016-07-03T09:12:08.644Z,972.83
2016-07-03T09:13:08.649Z,972.85
2016-07-03T09:14:08.650Z,972.82
2016-07-03T09:15:08.650Z,972.84
2016-07-03T09:16:08.652Z,972.84
2016-07-03T09:17:08.657Z,972.83
2016-07-03T09:18:08.658Z,972.82
2016-07-03T09:19:08.658Z,972.82
2016-07-03T09:20:08.658Z,972.79
2016-07-03T09:21:08.663Z,972.76
2016-07-03T09:22:08.663Z,972.76
2016-07-03T09:23:08.664Z,972.69
2016-07-03T09:24:08.667Z,972.76
2016-07-03T09:25:08.669Z,972.79
2016-07-03T09:26:08.670Z,972.73
2016-07-03T09:27:08.672Z,972.77
2016-07-03T09:28:08.676Z,972.75
2016-07-03T09:29:08.678Z,972.71
2016-07-03T09:30:08.679Z,972.72
2016-07-03T09:31:08.683Z,972.72
2016-07-03T09:32:08.686Z,972.7
2016-07-03T09:33:08.683Z,972.69
2016-07-03T09:34:08.689Z,972.7
2016-07-03T09:35:08.696Z,972.66
2016-07-03T09:36:08.692Z,972.71
2016-07-03T09:37:08.694Z,972.67
2016-07-03T09:38:08.698Z,972.65
2016-07-03T09:39:08.698Z,972.67
2016-07-03T09:40:08.699Z,972.65
2016-07-03T09:41:08.704Z,972.65
2016-07-03T09:42:08.704Z,972.59
2016-07-03T09:43:08.708Z,972.59
2016-07-03T09:44:08.711Z,972.54
2016-07-03T09:45:08.712Z,972.56
2016-07-03T09:46:08.714Z,972.59
2016-07-03T09:47:08.719Z,972.55
2016-07-03T09:48:08.718Z,972.55
2016-07-03T09:49:08.718Z,972.58
2016-07-03T09:50:08.722Z,972.59
2016-07-03T09:51:08.729Z,972.59
2016-07-03T09:52:08.727Z,972.6
2016-07-03T09:53:08.731Z,972.63
2016-07-03T09:54:08.731Z,972.63
2016-07-03T09:55:08.735Z,972.63
2016-07-03T09:56:08.732Z,972.64
2016-07-03T09:57:08.739Z,972.62
2016-07-03T09:58:08.739Z,972.66
2016-07-03T09:59:08.743Z,972.66
2016-07-03T10:00:08.743Z,972.65
2016-07-03T10:01:08.747Z,972.59
2016-07-03T10:02:08.748Z,972.6
2016-07-03T10:03:08.749Z,972.58
2016-07-03T10:04:08.752Z,972.57
2016-07-03T10:05:08.757Z,972.55
2016-07-03T10:06:08.755Z,972.51
2016-07-03T10:07:08.758Z,972.54
2016-07-03T10:08:08.762Z,972.52
2016-07-03T10:09:08.764Z,972.5
2016-07-03T10:10:08.769Z,972.49
2016-07-03T10:11:08.769Z,972.52
2016-07-03T10:12:08.772Z,972.47
2016-07-03T10:13:08.773Z,972.48
2016-07-03T10:14:08.777Z,972.46
2016-07-03T10:15:08.778Z,972.44
2016-07-03T10:16:08.782Z,972.43
2016-07-03T10:17:08.782Z,972.49
2016-07-03T10:18:08.834Z,972.48
2016-07-03T10:19:08.787Z,972.45
2016-07-03T10:20:08.790Z,972.45
2016-07-03T10:21:08.788Z,972.45
2016-07-03T10:22:08.794Z,972.43
2016-07-03T10:23:08.796Z,972.49
2016-07-03T10:24:08.798Z,972.43
2016-07-03T10:25:08.803Z,972.46
2016-07-03T10:26:08.802Z,972.45
2016-07-03T10:27:08.807Z,972.49
2016-07-03T10:28:08.806Z,972.5
2016-07-03T10:29:08.817Z,972.48
2016-07-03T10:30:08.809Z,972.48
2016-07-03T10:31:08.814Z,972.46
2016-07-03T10:32:08.813Z,972.5
2016-07-03T10:33:08.818Z,972.44
2016-07-03T10:34:08.823Z,972.41
2016-07-03T10:35:08.822Z,972.42
2016-07-03T10:36:08.826Z,972.46
2016-07-03T10:37:08.825Z,972.45
2016-07-03T10:38:08.829Z,972.43
2016-07-03T10:39:08.829Z,972.45
2016-07-03T10:40:08.833Z,972.46
2016-07-03T10:41:08.832Z,972.45
2016-07-03T10:42:08.837Z,972.43
2016-07-03T10:43:08.835Z,972.45
2016-07-03T10:44:08.840Z,972.4
2016-07-03T10:45:08.843Z,972.42
2016-07-03T10:46:08.842Z,972.42
2016-07-03T10:47:08.848Z,972.37
2016-07-03T10:48:08.848Z,972.35
2016-07-03T10:49:08.856Z,972.35
2016-07-03T10:50:08.850Z,972.33
2016-07-03T10:51:08.855Z,972.3
2016-07-03T10:52:08.853Z,972.32
2016-07-03T10:53:08.856Z,972.34
2016-07-03T10:54:08.857Z,972.3
2016-07-03T10:55:08.863Z,972.33
2016-07-03T10:56:08.865Z,972.32
2016-07-03T10:57:08.867Z,972.29
2016-07-03T10:58:08.867Z,972.28
2016-07-03T10:59:08.871Z,972.23
2016-07-03T11:00:08.875Z,972.22
2016-07-03T11:01:08.873Z,972.21
2016-07-03T11:02:08.879Z,972.2
2016-07-03T11:03:08.879Z,972.22
2016-07-03T11:04:08.882Z,972.18
2016-07-03T11:05:08.883Z,972.17
2016-07-03T11:06:08.884Z,972.16
2016-07-03T11:07:08.886Z,972.16
2016-07-03T11:08:08.895Z,972.17
2016-07-03T11:09:08.891Z,972.12
2016-07-03T11:10:08.907Z,972.12
2016-07-03T11:11:08.899Z,972.08
2016-07-03T11:12:08.904Z,972.13
2016-07-03T11:13:08.901Z,972.13
2016-07-03T11:14:08.902Z,972.15
2016-07-03T11:15:08.906Z,972.13
2016-07-03T11:16:08.908Z,972.1
2016-07-03T11:17:08.913Z,972.11
2016-07-03T11:18:08.911Z,972.14
2016-07-03T11:19:08.918Z,972.14
2016-07-03T11:20:08.918Z,972.11
2016-07-03T11:21:08.920Z,972.11
2016-07-03T11:22:08.926Z,972.13
2016-07-03T11:23:08.925Z,972.13
2016-07-03T11:24:08.924Z,972.08
2016-07-03T11:25:08.930Z,972.12
2016-07-03T11:26:08.934Z,972.1
2016-07-03T11:27:08.934Z,972.07
2016-07-03T11:28:08.933Z,972.1
2016-07-03T11:29:08.938Z,972.07
2016-07-03T11:30:08.943Z,972.06
2016-07-03T11:31:08.950Z,972.07
2016-07-03T11:32:08.947Z,972.05
2016-07-03T11:33:08.951Z,972.02
2016-07-03T11:34:08.950Z,972.02
2016-07-03T11:35:08.955Z,972.05
2016-07-03T11:36:08.953Z,972.06
2016-07-03T11:37:08.955Z,972.09
2016-07-03T11:38:08.956Z,972.05
2016-07-03T11:39:08.968Z,972.06
2016-07-03T11:40:08.963Z,972.11
2016-07-03T11:41:08.967Z,972.1
2016-07-03T11:42:08.967Z,972.11
2016-07-03T11:43:08.970Z,972.1
2016-07-03T11:44:08.975Z,972.08
2016-07-03T11:45:08.976Z,972.1
2016-07-03T11:46:08.979Z,972.08
2016-07-03T11:47:08.980Z,972.06
2016-07-03T11:48:08.983Z,972.08
2016-07-03T11:49:08.983Z,972.12
2016-07-03T11:50:08.987Z,972.07
2016-07-03T11:51:08.988Z,972.09
2016-07-03T11:52:08.991Z,972.09
2016-07-03T11:53:08.992Z,972.03
2016-07-03T11:54:08.995Z,972.02
2016-07-03T11:55:08.999Z,972.03
2016-07-03T11:56:08.999Z,972.01
2016-07-03T11:57:09.004Z,972.03
2016-07-03T11:58:09.000Z,972.03
2016-07-03T11:59:09.007Z,971.98
2016-07-03T12:00:09.008Z,972
2016-07-03T12:01:09.011Z,971.96
2016-07-03T12:02:09.010Z,971.96
2016-07-03T12:03:09.016Z,971.93
2016-07-03T12:04:09.015Z,971.92
2016-07-03T12:05:09.020Z,971.91
2016-07-03T12:06:09.023Z,971.93
2016-07-03T12:07:09.025Z,971.92
2016-07-03T12:08:09.029Z,971.92
2016-07-03T12:09:09.028Z,971.95
2016-07-03T12:10:09.032Z,971.9
2016-07-03T12:11:09.032Z,971.93
2016-07-03T12:12:09.033Z,971.9
2016-07-03T12:13:09.041Z,971.94
2016-07-03T12:14:09.041Z,971.9
2016-07-03T12:15:09.045Z,971.82
2016-07-03T12:16:09.045Z,971.83
2016-07-03T12:17:09.049Z,971.87
2016-07-03T12:18:09.199Z,971.83
2016-07-03T12:19:09.053Z,971.83
2016-07-03T12:20:09.057Z,971.86
2016-07-03T12:21:09.056Z,971.84
2016-07-03T12:22:09.060Z,971.81
2016-07-03T12:23:09.060Z,971.79
2016-07-03T12:24:09.064Z,971.81
2016-07-03T12:25:09.064Z,971.73
2016-07-03T12:26:09.068Z,971.77
2016-07-03T12:27:09.072Z,971.74
2016-07-03T12:28:09.070Z,971.72
2016-07-03T12:29:09.076Z,971.7
2016-07-03T12:30:09.076Z,971.66
2016-07-03T12:31:09.081Z,971.72